createdAt,value
2023-11-29T00:01:08.638Z,2.33
2023-11-29T00:03:36.143Z,2.40
2023-11-29T00:06:04.321Z,2.17
2023-11-29T00:08:31.454Z,2.03
2023-11-29T00:10:58.306Z,2.50
2023-11-29T00:13:25.013Z,2.47
2023-11-29T00:15:51.695Z,2.23
2023-11-29T00:18:18.701Z,2.92
2023-11-29T00:20:46.143Z,2.20
2023-11-29T00:23:13.004Z,2.47
2023-11-29T00:25:39.761Z,2.38
2023-11-29T00:28:06.526Z,2.33
2023-11-29T00:30:33.375Z,2.20
2023-11-29T00:33:00.126Z,2.13
2023-11-29T00:35:26.883Z,2.15
2023-11-29T00:37:53.623Z,2.45
2023-11-29T00:40:20.332Z,2.40
2023-11-29T00:42:47.112Z,2.42
2023-11-29T00:45:13.830Z,1.50
2023-11-29T00:47:40.567Z,2.17
2023-11-29T00:50:08.145Z,2.00
2023-11-29T00:52:34.929Z,2.10
2023-11-29T00:55:01.575Z,1.55
2023-11-29T00:57:28.303Z,1.50
2023-11-29T00:59:54.989Z,1.80
2023-11-29T01:02:21.880Z,1.73
2023-11-29T01:04:48.695Z,1.60
2023-11-29T01:07:15.373Z,1.45
2023-11-29T01:09:42.057Z,1.20
2023-11-29T01:12:08.896Z,1.60
2023-11-29T01:14:36.891Z,1.33
2023-11-29T01:17:03.927Z,1.30
2023-11-29T01:19:30.625Z,1.50
2023-11-29T01:21:57.271Z,1.00
2023-11-29T01:24:23.942Z,0.82
2023-11-29T01:26:50.623Z,1.00
2023-11-29T01:29:17.454Z,0.70
2023-11-29T01:31:44.186Z,0.85
2023-11-29T01:34:10.883Z,0.90
2023-11-29T01:36:43.791Z,0.98
2023-11-29T01:39:15.456Z,0.80
2023-11-29T01:41:43.012Z,0.90
2023-11-29T01:44:10.038Z,0.73
2023-11-29T01:46:37.169Z,0.73
2023-11-29T01:49:04.431Z,0.77
2023-11-29T01:51:31.718Z,1.00
2023-11-29T01:54:02.598Z,0.97
2023-11-29T01:56:29.745Z,1.00
2023-11-29T01:58:56.720Z,1.08
2023-11-29T02:01:23.424Z,0.70
2023-11-29T02:03:50.650Z,0.80
2023-11-29T02:06:17.840Z,0.70
2023-11-29T02:08:44.634Z,0.57
2023-11-29T02:11:15.006Z,0.45
2023-11-29T02:13:41.672Z,0.40
2023-11-29T02:16:08.742Z,0.50
2023-11-29T02:18:35.393Z,0.47
2023-11-29T02:21:02.242Z,0.40
2023-11-29T02:23:37.219Z,0.30
2023-11-29T02:26:03.950Z,0.40
2023-11-29T02:28:30.521Z,0.30
2023-11-29T02:30:57.280Z,0.20
2023-11-29T02:33:23.947Z,0.65
2023-11-29T02:35:50.673Z,0.20
2023-11-29T02:38:18.492Z,0.20
2023-11-29T02:40:45.287Z,0.25
2023-11-29T02:43:12.027Z,0.30
2023-11-29T02:45:38.781Z,0.30
2023-11-29T02:48:06.839Z,0.40
2023-11-29T02:50:33.768Z,0.32
2023-11-29T02:53:00.428Z,0.20
2023-11-29T02:55:27.199Z,0.20
2023-11-29T02:57:53.886Z,0.20
2023-11-29T03:00:20.685Z,0.30
2023-11-29T03:02:47.437Z,0.20
2023-11-29T03:05:14.360Z,0.20
2023-11-29T03:07:41.763Z,0.40
2023-11-29T03:10:08.571Z,0.20
2023-11-29T03:12:35.349Z,0.20
2023-11-29T03:15:02.016Z,0.10
2023-11-29T03:17:28.933Z,0.22
2023-11-29T03:19:55.631Z,0.17
2023-11-29T03:22:22.625Z,0.30
2023-11-29T03:24:49.368Z,0.10
2023-11-29T03:27:22.378Z,0.10
2023-11-29T03:29:49.218Z,0.00
2023-11-29T03:32:16.192Z,0.10
2023-11-29T03:34:42.880Z,0.10
2023-11-29T03:37:10.345Z,0.20
2023-11-29T03:39:37.116Z,0.03
2023-11-29T03:42:04.017Z,0.10
2023-11-29T03:44:30.728Z,0.30
2023-11-29T03:46:58.498Z,0.10
2023-11-29T03:49:25.209Z,0.30
2023-11-29T03:51:51.880Z,0.10
2023-11-29T03:54:18.555Z,0.10
2023-11-29T03:56:45.224Z,0.13
2023-11-29T03:59:11.961Z,0.13
2023-11-29T04:01:38.744Z,0.15
2023-11-29T04:04:05.776Z,0.10
2023-11-29T04:06:32.463Z,0.30
2023-11-29T04:08:59.310Z,0.10
2023-11-29T04:11:26.084Z,0.28
2023-11-29T04:13:52.922Z,0.20
2023-11-29T04:16:23.933Z,0.10
2023-11-29T04:18:52.687Z,0.17
2023-11-29T04:21:28.633Z,0.37
2023-11-29T04:23:56.528Z,0.05
2023-11-29T04:26:24.569Z,0.00
2023-11-29T04:28:51.268Z,0.10
2023-11-29T04:31:17.929Z,0.00
2023-11-29T04:33:45.719Z,0.10
2023-11-29T04:36:12.617Z,0.10
2023-11-29T04:38:39.482Z,0.10
2023-11-29T04:41:06.362Z,0.10
2023-11-29T04:43:33.092Z,0.10
2023-11-29T04:45:59.789Z,0.10
2023-11-29T04:48:26.713Z,0.10
2023-11-29T04:50:53.401Z,0.17
2023-11-29T04:53:20.144Z,0.40
2023-11-29T04:55:46.787Z,0.13
2023-11-29T04:58:16.639Z,0.10
2023-11-29T05:00:43.394Z,0.10
2023-11-29T05:03:10.269Z,0.10
2023-11-29T05:05:37.183Z,0.10
2023-11-29T05:08:03.964Z,0.20
2023-11-29T05:10:30.725Z,0.10
2023-11-29T05:12:58.455Z,0.10
2023-11-29T05:15:29.661Z,0.10
2023-11-29T05:18:00.839Z,0.10
2023-11-29T05:20:28.323Z,0.00
2023-11-29T05:22:55.093Z,0.07
2023-11-29T05:25:21.755Z,0.20
2023-11-29T05:27:48.891Z,0.00
2023-11-29T05:30:15.783Z,0.10
2023-11-29T05:32:42.780Z,0.10
2023-11-29T05:35:09.725Z,0.10
2023-11-29T05:37:36.453Z,0.10
2023-11-29T05:40:03.328Z,0.10
2023-11-29T05:42:29.956Z,0.00
2023-11-29T05:44:56.707Z,0.10
2023-11-29T05:47:23.509Z,0.17
2023-11-29T05:49:50.513Z,0.08
2023-11-29T05:52:19.917Z,0.10
2023-11-29T05:54:49.480Z,0.05
2023-11-29T05:57:16.163Z,0.20
2023-11-29T05:59:42.893Z,0.10
2023-11-29T06:02:09.614Z,0.20
2023-11-29T06:04:36.218Z,0.22
2023-11-29T06:07:02.887Z,0.10
2023-11-29T06:09:32.660Z,0.10
2023-11-29T06:11:59.583Z,0.00
2023-11-29T06:14:26.646Z,0.00
2023-11-29T06:16:54.561Z,0.32
2023-11-29T06:19:24.007Z,0.10
2023-11-29T06:21:50.897Z,0.10
2023-11-29T06:24:17.544Z,0.00
2023-11-29T06:26:44.255Z,0.00
2023-11-29T06:29:10.924Z,0.10
2023-11-29T06:31:40.450Z,0.00
2023-11-29T06:34:07.153Z,0.10
2023-11-29T06:36:36.807Z,0.07
2023-11-29T06:39:04.388Z,0.10
2023-11-29T06:41:31.366Z,0.10
2023-11-29T06:43:58.077Z,0.00
2023-11-29T06:46:24.813Z,0.10
2023-11-29T06:48:51.737Z,0.10
2023-11-29T06:51:18.427Z,0.10
2023-11-29T06:53:45.246Z,0.10
2023-11-29T06:56:12.089Z,0.10
2023-11-29T06:58:41.541Z,0.00
2023-11-29T07:01:11.574Z,0.30
2023-11-29T07:03:38.392Z,0.00
2023-11-29T07:06:05.401Z,0.10
2023-11-29T07:08:32.743Z,0.20
2023-11-29T07:11:00.672Z,0.10
2023-11-29T07:13:27.408Z,0.00
2023-11-29T07:15:57.912Z,0.08
2023-11-29T07:18:26.937Z,0.17
2023-11-29T07:20:53.709Z,0.10
2023-11-29T07:23:23.789Z,0.15
2023-11-29T07:25:51.754Z,0.20
2023-11-29T07:28:18.603Z,0.20
2023-11-29T07:30:45.290Z,0.15
2023-11-29T07:33:12.611Z,0.20
2023-11-29T07:35:39.590Z,0.20
2023-11-29T07:38:06.518Z,0.20
2023-11-29T07:40:33.971Z,0.20
2023-11-29T07:43:00.685Z,0.20
2023-11-29T07:45:27.434Z,0.22
2023-11-29T07:47:54.230Z,0.20
2023-11-29T07:50:21.911Z,0.57
2023-11-29T07:52:48.952Z,0.20
2023-11-29T07:55:15.789Z,3.13
2023-11-29T07:57:42.491Z,2.47
2023-11-29T08:00:14.867Z,0.40
2023-11-29T08:02:42.893Z,0.30
2023-11-29T08:05:10.900Z,0.30
2023-11-29T08:07:37.629Z,0.20
2023-11-29T08:10:04.718Z,0.40
2023-11-29T08:12:31.486Z,0.40
2023-11-29T08:14:58.381Z,0.20
2023-11-29T08:17:25.335Z,0.40
2023-11-29T08:19:52.154Z,0.45
2023-11-29T08:22:19.036Z,0.20
2023-11-29T08:24:45.862Z,0.30
2023-11-29T08:27:12.675Z,0.30
2023-11-29T08:29:41.128Z,0.30
2023-11-29T08:32:08.229Z,0.60
2023-11-29T08:34:34.895Z,0.30
2023-11-29T08:37:01.584Z,0.40
2023-11-29T08:39:28.341Z,0.40
2023-11-29T08:41:55.287Z,0.40
2023-11-29T08:44:21.974Z,0.40
2023-11-29T08:46:48.800Z,0.30
2023-11-29T08:49:16.986Z,0.47
2023-11-29T08:51:44.274Z,0.30
2023-11-29T08:54:12.113Z,0.70
2023-11-29T08:56:39.627Z,0.43
2023-11-29T08:59:06.637Z,0.30
2023-11-29T09:01:33.861Z,0.43
2023-11-29T09:04:00.855Z,0.50
2023-11-29T09:06:27.552Z,0.40
2023-11-29T09:08:54.558Z,0.40
2023-11-29T09:11:21.235Z,0.38
2023-11-29T09:13:50.324Z,0.40
2023-11-29T09:16:18.502Z,0.40
2023-11-29T09:18:45.462Z,0.70
2023-11-29T09:21:12.327Z,0.52
2023-11-29T09:23:39.222Z,0.50
2023-11-29T09:26:06.085Z,0.40
2023-11-29T09:28:32.784Z,0.57
2023-11-29T09:31:02.664Z,0.55
2023-11-29T09:33:34.087Z,0.30
2023-11-29T09:36:03.869Z,0.30
2023-11-29T09:38:30.918Z,0.50
2023-11-29T09:40:58.431Z,0.97
2023-11-29T09:43:29.111Z,0.57
2023-11-29T09:45:56.681Z,0.70
2023-11-29T09:48:25.337Z,0.28
2023-11-29T09:50:52.757Z,0.85
2023-11-29T09:53:19.503Z,0.20
2023-11-29T09:55:46.508Z,0.30
2023-11-29T09:58:13.208Z,0.30
2023-11-29T10:00:41.238Z,0.10
2023-11-29T10:03:15.091Z,0.20
2023-11-29T10:05:49.272Z,1.30
2023-11-29T10:08:23.573Z,4.20
2023-11-29T10:10:51.639Z,0.20
2023-11-29T10:13:18.549Z,0.38
2023-11-29T10:15:50.035Z,0.20
2023-11-29T10:18:19.185Z,0.20
2023-11-29T10:21:00.475Z,0.20
2023-11-29T10:23:34.302Z,0.30
2023-11-29T10:26:01.116Z,0.28
2023-11-29T10:28:27.900Z,0.20
2023-11-29T10:30:59.753Z,0.30
2023-11-29T10:33:27.273Z,0.93
2023-11-29T10:35:54.655Z,0.20
2023-11-29T10:38:24.923Z,0.38
2023-11-29T10:40:53.474Z,0.30
2023-11-29T10:43:24.775Z,0.20
2023-11-29T10:45:59.364Z,0.15
2023-11-29T10:48:31.099Z,0.30
2023-11-29T10:50:59.066Z,0.20
2023-11-29T10:53:25.769Z,0.20
2023-11-29T10:55:53.247Z,0.53
2023-11-29T10:58:35.516Z,1.60
2023-11-29T11:01:04.156Z,0.30
2023-11-29T11:03:47.281Z,0.22
2023-11-29T11:06:23.564Z,0.20
2023-11-29T11:08:55.886Z,0.30
2023-11-29T11:11:44.058Z,0.17
2023-11-29T11:14:50.275Z,0.32
2023-11-29T11:17:20.250Z,0.20
2023-11-29T11:19:48.700Z,0.43
2023-11-29T11:22:15.636Z,0.20
2023-11-29T11:24:54.653Z,0.15
2023-11-29T11:27:35.721Z,0.20
2023-11-29T11:30:20.841Z,0.20
2023-11-29T11:32:52.885Z,0.25
2023-11-29T11:35:19.792Z,0.20
2023-11-29T11:37:59.946Z,0.20
2023-11-29T11:40:31.832Z,0.20
2023-11-29T11:42:59.531Z,0.10
2023-11-29T11:45:32.676Z,0.10
2023-11-29T11:48:03.343Z,0.10
2023-11-29T11:50:33.023Z,0.30
2023-11-29T11:53:00.790Z,0.17
2023-11-29T11:55:31.446Z,0.20
2023-11-29T11:58:04.779Z,0.10
2023-11-29T12:00:31.971Z,0.10
2023-11-29T12:03:00.987Z,0.20
2023-11-29T12:05:28.227Z,0.13
2023-11-29T12:07:55.141Z,0.20
2023-11-29T12:10:23.749Z,0.20
2023-11-29T12:12:51.509Z,0.30
2023-11-29T12:15:19.281Z,0.25
2023-11-29T12:17:48.354Z,0.35
2023-11-29T12:20:15.820Z,0.20
2023-11-29T12:22:52.628Z,0.30
2023-11-29T12:25:21.362Z,0.20
2023-11-29T12:27:52.003Z,0.20
2023-11-29T12:30:20.870Z,0.43
2023-11-29T12:32:51.790Z,0.22
2023-11-29T12:35:19.115Z,1.27
2023-11-29T12:37:48.795Z,8.27
2023-11-29T12:40:21.105Z,5.80
2023-11-29T12:42:49.148Z,0.60
2023-11-29T12:45:17.334Z,18.10
2023-11-29T12:47:44.485Z,7.13
2023-11-29T12:50:13.555Z,0.40
2023-11-29T12:52:40.841Z,0.77
2023-11-29T12:55:08.241Z,0.30
2023-11-29T12:57:34.962Z,1.05
2023-11-29T13:00:02.222Z,0.20
2023-11-29T13:02:59.339Z,2.00
2023-11-29T13:06:00.115Z,0.22
2023-11-29T13:11:08.336Z,0.20
2023-11-29T13:13:37.698Z,0.10
2023-11-29T13:16:04.623Z,0.20
2023-11-29T13:18:31.545Z,0.20
2023-11-29T13:20:58.373Z,0.10
2023-11-29T13:23:26.286Z,0.10
2023-11-29T13:25:53.043Z,0.32
2023-11-29T13:28:19.771Z,0.10
2023-11-29T13:30:46.470Z,0.10
2023-11-29T13:33:13.292Z,0.10
2023-11-29T13:35:40.747Z,0.10
2023-11-29T13:38:07.743Z,0.10
2023-11-29T13:40:34.527Z,0.10
2023-11-29T13:43:01.356Z,21.40
2023-11-29T13:45:28.223Z,19.63
2023-11-29T13:47:55.248Z,7.13
2023-11-29T13:50:23.260Z,2.35
2023-11-29T13:52:50.420Z,0.20
2023-11-29T13:55:17.253Z,0.20
2023-11-29T13:57:44.006Z,0.20
2023-11-29T14:00:11.068Z,0.10
2023-11-29T14:02:38.150Z,0.10
2023-11-29T14:05:05.839Z,0.10
2023-11-29T14:07:32.714Z,0.10
2023-11-29T14:09:59.392Z,0.10
2023-11-29T14:12:26.784Z,0.20
2023-11-29T14:14:53.713Z,0.93
2023-11-29T14:17:20.542Z,0.20
2023-11-29T14:19:47.391Z,0.28
2023-11-29T14:22:14.268Z,0.17
2023-11-29T14:24:54.979Z,0.17
2023-11-29T14:27:26.838Z,0.10
2023-11-29T14:30:17.881Z,0.20
2023-11-29T14:32:47.265Z,0.10
2023-11-29T14:35:15.818Z,0.20
2023-11-29T14:37:42.865Z,0.20
2023-11-29T14:40:10.275Z,0.20
2023-11-29T14:42:37.042Z,0.20
2023-11-29T14:45:20.934Z,0.30
2023-11-29T14:47:50.356Z,0.20
2023-11-29T14:50:19.489Z,0.20
2023-11-29T14:52:49.772Z,0.10
2023-11-29T14:55:17.882Z,0.27
2023-11-29T14:58:10.949Z,0.20
2023-11-29T15:01:07.896Z,0.20
2023-11-29T15:03:25.088Z,0.20
2023-11-29T15:05:54.554Z,0.30
2023-11-29T15:08:25.369Z,0.20
2023-11-29T15:13:42.292Z,0.30
2023-11-29T15:16:10.929Z,0.25
2023-11-29T15:18:37.816Z,0.20
2023-11-29T15:21:08.050Z,0.20
2023-11-29T15:23:37.490Z,0.40
2023-11-29T15:26:04.211Z,0.30
2023-11-29T15:28:31.554Z,0.20
2023-11-29T15:31:17.795Z,0.10
2023-11-29T15:33:48.627Z,0.20
2023-11-29T15:36:42.886Z,0.20
2023-11-29T15:39:11.787Z,0.20
2023-11-29T15:41:40.491Z,0.10
2023-11-29T15:44:11.550Z,0.30
2023-11-29T15:46:38.628Z,0.30
2023-11-29T15:49:12.193Z,0.20
2023-11-29T15:51:38.916Z,0.40
2023-11-29T15:54:05.769Z,0.30
2023-11-29T15:56:44.833Z,0.10
2023-11-29T15:59:11.646Z,0.20
2023-11-29T16:01:38.478Z,0.20
2023-11-29T16:04:05.757Z,0.43
2023-11-29T16:06:37.688Z,0.50
2023-11-29T16:09:04.449Z,0.30
2023-11-29T16:11:31.155Z,0.30
2023-11-29T16:14:08.475Z,0.40
2023-11-29T16:17:32.131Z,0.40
2023-11-29T16:19:58.820Z,0.20
2023-11-29T16:22:38.836Z,0.30
2023-11-29T16:25:16.842Z,0.93
2023-11-29T16:27:43.772Z,0.30
2023-11-29T16:30:11.026Z,0.30
2023-11-29T16:32:37.971Z,0.32
2023-11-29T16:35:05.201Z,0.50
2023-11-29T16:37:32.804Z,0.63
2023-11-29T16:40:08.515Z,0.50
2023-11-29T16:42:36.408Z,0.80
2023-11-29T16:45:04.329Z,0.50
2023-11-29T16:47:31.197Z,0.50
2023-11-29T16:49:58.040Z,0.43
2023-11-29T16:52:38.021Z,0.52
2023-11-29T16:55:05.282Z,0.70
2023-11-29T16:57:31.927Z,1.10
2023-11-29T16:59:59.654Z,0.50
2023-11-29T17:02:26.406Z,0.90
2023-11-29T17:04:53.229Z,0.50
2023-11-29T17:07:20.003Z,0.80
2023-11-29T17:09:47.746Z,1.60
2023-11-29T17:12:14.855Z,1.10
2023-11-29T17:14:43.762Z,1.00
2023-11-29T17:17:10.826Z,1.23
2023-11-29T17:19:37.634Z,1.00
2023-11-29T17:22:04.547Z,1.10
2023-11-29T17:24:31.287Z,0.90
2023-11-29T17:27:03.933Z,1.10
2023-11-29T17:29:30.672Z,1.60
2023-11-29T17:32:07.726Z,0.93
2023-11-29T17:34:34.616Z,1.10
2023-11-29T17:37:01.361Z,1.70
2023-11-29T17:39:28.580Z,1.70
2023-11-29T17:41:55.881Z,1.58
2023-11-29T17:44:24.132Z,1.45
2023-11-29T17:46:54.933Z,1.85
2023-11-29T17:49:21.736Z,1.27
2023-11-29T17:51:52.572Z,1.30
2023-11-29T17:54:19.332Z,1.40
2023-11-29T17:56:46.180Z,1.55
2023-11-29T17:59:14.124Z,1.42
2023-11-29T18:01:44.367Z,1.40
2023-11-29T18:04:11.537Z,2.40
2023-11-29T18:06:38.490Z,1.70
2023-11-29T18:09:14.786Z,1.70
2023-11-29T18:11:43.342Z,1.40
2023-11-29T18:14:10.419Z,1.70
2023-11-29T18:16:37.162Z,1.37
2023-11-29T18:19:04.676Z,1.65
2023-11-29T18:21:34.223Z,2.20
2023-11-29T18:24:02.013Z,2.50
2023-11-29T18:26:30.878Z,1.73
2023-11-29T18:28:57.864Z,1.70
2023-11-29T18:31:27.964Z,1.65
2023-11-29T18:34:05.717Z,1.38
2023-11-29T18:36:32.743Z,1.70
2023-11-29T18:39:00.582Z,1.98
2023-11-29T18:41:27.922Z,1.43
2023-11-29T18:43:55.536Z,1.63
2023-11-29T18:46:22.424Z,1.60
2023-11-29T18:48:50.315Z,1.83
2023-11-29T18:51:19.566Z,1.50
2023-11-29T18:53:46.525Z,1.50
2023-11-29T18:56:13.593Z,1.35
2023-11-29T18:58:42.174Z,1.35
2023-11-29T19:01:09.618Z,1.50
2023-11-29T19:03:36.721Z,1.10
2023-11-29T19:06:03.799Z,1.37
2023-11-29T19:08:32.594Z,1.63
2023-11-29T19:10:59.490Z,1.35
2023-11-29T19:13:26.456Z,1.50
2023-11-29T19:15:53.220Z,2.03
2023-11-29T19:18:24.459Z,1.53
2023-11-29T19:20:56.444Z,1.55
2023-11-29T19:23:33.460Z,1.60
2023-11-29T19:26:05.005Z,1.60
2023-11-29T19:28:34.182Z,1.83
2023-11-29T19:31:02.112Z,2.00
2023-11-29T19:33:30.816Z,1.65
2023-11-29T19:35:58.930Z,1.48
2023-11-29T19:38:27.063Z,1.70
2023-11-29T19:40:55.508Z,2.03
2023-11-29T19:43:22.378Z,2.33
2023-11-29T19:46:01.500Z,1.98
2023-11-29T19:48:28.503Z,2.05
2023-11-29T19:51:01.967Z,2.40
2023-11-29T19:53:57.826Z,1.88
2023-11-29T19:56:43.169Z,2.53
2023-11-29T20:04:37.533Z,2.25
2023-11-29T20:09:55.127Z,3.17
2023-11-29T20:18:35.100Z,2.53
2023-11-29T20:21:25.985Z,2.40
2023-11-29T20:23:56.303Z,1.63
2023-11-29T20:29:28.600Z,1.67
2023-11-29T20:31:58.628Z,1.60
2023-11-29T20:35:00.671Z,1.60
2023-11-29T20:40:32.970Z,1.63
2023-11-29T20:45:54.859Z,1.70
2023-11-29T20:48:22.156Z,2.95
2023-11-29T20:51:04.887Z,1.70
2023-11-29T20:54:03.922Z,3.17
2023-11-29T20:56:29.910Z,3.78
2023-11-29T20:59:19.492Z,8.77
2023-11-29T21:01:52.002Z,5.30
2023-11-29T21:04:24.090Z,3.70
2023-11-29T21:06:51.702Z,5.60
2023-11-29T21:10:10.776Z,4.03
2023-11-29T21:12:16.250Z,4.45
2023-11-29T21:14:45.971Z,3.90
2023-11-29T21:17:39.855Z,5.03
2023-11-29T21:20:25.789Z,4.40
2023-11-29T21:22:56.673Z,4.07
2023-11-29T21:25:24.016Z,3.80
2023-11-29T21:30:39.255Z,5.10
2023-11-29T21:33:23.238Z,4.15
2023-11-29T21:35:56.758Z,4.78
2023-11-29T21:41:30.254Z,3.40
2023-11-29T21:44:27.501Z,3.63
2023-11-29T21:52:59.897Z,3.83
2023-11-29T21:55:32.880Z,3.47
2023-11-29T21:58:06.518Z,4.83
2023-11-29T22:01:18.464Z,5.38
2023-11-29T22:03:37.944Z,5.97
2023-11-29T22:09:44.724Z,5.78
2023-11-29T22:12:40.507Z,5.10
2023-11-29T22:15:11.350Z,5.53
2023-11-29T22:17:51.296Z,5.43
2023-11-29T22:20:25.605Z,4.47
2023-11-29T22:23:11.533Z,3.88
2023-11-29T22:28:25.873Z,3.70
2023-11-29T22:30:56.538Z,3.45
2023-11-29T22:36:25.280Z,2.92
2023-11-29T22:39:25.445Z,2.80
2023-11-29T22:41:44.595Z,2.80
2023-11-29T22:44:32.050Z,2.90
2023-11-29T22:47:29.377Z,3.40
2023-11-29T22:52:42.651Z,3.57
2023-11-29T22:58:17.004Z,3.58
2023-11-29T23:01:19.749Z,2.65
2023-11-29T23:06:44.295Z,2.07
2023-11-29T23:09:28.494Z,2.95
2023-11-29T23:14:47.783Z,2.38
2023-11-29T23:17:25.820Z,2.05
2023-11-29T23:22:45.432Z,2.10
2023-11-29T23:27:57.051Z,2.50
2023-11-29T23:30:27.649Z,2.55
2023-11-29T23:32:56.748Z,3.40
2023-11-29T23:35:51.975Z,2.95
2023-11-29T23:38:21.155Z,3.35
2023-11-29T23:40:50.951Z,3.38
2023-11-29T23:43:18.207Z,3.00
2023-11-29T23:45:46.459Z,2.80
2023-11-29T23:48:22.004Z,2.72
2023-11-29T23:50:49.680Z,2.95
2023-11-29T23:53:31.213Z,3.30
2023-11-29T23:56:00.630Z,3.40
2023-11-29T23:58:27.820Z,2.63
